sensor_id;sensor_type;location;lat;lon;timestamp;P1;durP1;ratioP1;P2;durP2;ratioP2
71162;SDS011;58858;50.948;6.566;2024-01-10T00:04:52;11.45;;;5.53;;
71162;SDS011;58858;50.948;6.566;2024-01-10T00:14:54;16.27;;;6.53;;
71162;SDS011;58858;50.948;6.566;2024-01-10T00:24:55;11.38;;;5.43;;
71162;SDS011;58858;50.948;6.566;2024-01-10T00:34:56;12.82;;;5.70;;
71162;SDS011;58858;50.948;6.566;2024-01-10T00:44:57;12.55;;;6.75;;
71162;SDS011;58858;50.948;6.566;2024-01-10T00:54:58;11.07;;;6.25;;
71162;SDS011;58858;50.948;6.566;2024-01-10T01:04:59;10.40;;;6.60;;
71162;SDS011;58858;50.948;6.566;2024-01-10T01:15:00;10.82;;;5.95;;
71162;SDS011;58858;50.948;6.566;2024-01-10T01:25:01;16.15;;;6.35;;
71162;SDS011;58858;50.948;6.566;2024-01-10T01:35:03;14.23;;;6.25;;
71162;SDS011;58858;50.948;6.566;2024-01-10T01:45:04;14.23;;;6.38;;
71162;SDS011;58858;50.948;6.566;2024-01-10T01:55:06;12.57;;;6.05;;
71162;SDS011;58858;50.948;6.566;2024-01-10T02:05:08;13.65;;;7.00;;
71162;SDS011;58858;50.948;6.566;2024-01-10T02:15:09;11.30;;;6.00;;
71162;SDS011;58858;50.948;6.566;2024-01-10T02:25:10;14.60;;;6.40;;
71162;SDS011;58858;50.948;6.566;2024-01-10T02:35:12;13.32;;;6.28;;
71162;SDS011;58858;50.948;6.566;2024-01-10T02:45:13;11.73;;;5.60;;
71162;SDS011;58858;50.948;6.566;2024-01-10T02:55:14;13.02;;;6.35;;
71162;SDS011;58858;50.948;6.566;2024-01-10T03:05:15;11.27;;;5.28;;
71162;SDS011;58858;50.948;6.566;2024-01-10T03:15:16;13.45;;;6.13;;
71162;SDS011;58858;50.948;6.566;2024-01-10T03:25:17;15.20;;;6.07;;
71162;SDS011;58858;50.948;6.566;2024-01-10T03:35:18;16.05;;;6.30;;
71162;SDS011;58858;50.948;6.566;2024-01-10T03:45:19;9.65;;;5.50;;
71162;SDS011;58858;50.948;6.566;2024-01-10T03:55:23;13.80;;;6.20;;
71162;SDS011;58858;50.948;6.566;2024-01-10T04:05:24;10.98;;;5.80;;
71162;SDS011;58858;50.948;6.566;2024-01-10T04:15:25;15.13;;;6.03;;
71162;SDS011;58858;50.948;6.566;2024-01-10T04:25:27;15.32;;;7.68;;
71162;SDS011;58858;50.948;6.566;2024-01-10T04:35:28;14.93;;;6.75;;
71162;SDS011;58858;50.948;6.566;2024-01-10T04:45:29;14.55;;;6.28;;
71162;SDS011;58858;50.948;6.566;2024-01-10T04:55:30;17.80;;;6.88;;
71162;SDS011;58858;50.948;6.566;2024-01-10T05:05:31;14.90;;;6.63;;
71162;SDS011;58858;50.948;6.566;2024-01-10T05:15:32;15.32;;;6.57;;
71162;SDS011;58858;50.948;6.566;2024-01-10T05:25:33;15.57;;;6.40;;
71162;SDS011;58858;50.948;6.566;2024-01-10T05:35:34;14.75;;;6.13;;
71162;SDS011;58858;50.948;6.566;2024-01-10T05:45:36;16.05;;;6.60;;
71162;SDS011;58858;50.948;6.566;2024-01-10T05:55:37;16.10;;;7.85;;
71162;SDS011;58858;50.948;6.566;2024-01-10T06:05:39;15.88;;;8.07;;
71162;SDS011;58858;50.948;6.566;2024-01-10T06:15:40;15.45;;;7.72;;
71162;SDS011;58858;50.948;6.566;2024-01-10T06:25:42;12.75;;;6.63;;
71162;SDS011;58858;50.948;6.566;2024-01-10T06:35:43;11.85;;;6.68;;
71162;SDS011;58858;50.948;6.566;2024-01-10T06:45:45;15.40;;;7.00;;
71162;SDS011;58858;50.948;6.566;2024-01-10T06:55:47;16.33;;;7.82;;
71162;SDS011;58858;50.948;6.566;2024-01-10T07:05:48;18.15;;;8.60;;
71162;SDS011;58858;50.948;6.566;2024-01-10T07:15:49;19.88;;;8.57;;
71162;SDS011;58858;50.948;6.566;2024-01-10T07:25:53;16.30;;;7.85;;
71162;SDS011;58858;50.948;6.566;2024-01-10T07:35:54;17.02;;;7.30;;
71162;SDS011;58858;50.948;6.566;2024-01-10T07:45:55;14.70;;;8.60;;
71162;SDS011;58858;50.948;6.566;2024-01-10T07:55:56;14.95;;;7.85;;
71162;SDS011;58858;50.948;6.566;2024-01-10T08:05:57;17.50;;;8.90;;
71162;SDS011;58858;50.948;6.566;2024-01-10T08:15:59;16.90;;;8.70;;
71162;SDS011;58858;50.948;6.566;2024-01-10T08:26:01;23.80;;;10.82;;
71162;SDS011;58858;50.948;6.566;2024-01-10T08:36:03;27.27;;;11.48;;
71162;SDS011;58858;50.948;6.566;2024-01-10T08:46:04;25.38;;;12.80;;
71162;SDS011;58858;50.948;6.566;2024-01-10T08:56:05;33.45;;;12.70;;
71162;SDS011;58858;50.948;6.566;2024-01-10T09:06:06;23.40;;;11.48;;
71162;SDS011;58858;50.948;6.566;2024-01-10T09:16:10;20.55;;;10.18;;
71162;SDS011;58858;50.948;6.566;2024-01-10T09:26:11;25.98;;;10.98;;
71162;SDS011;58858;50.948;6.566;2024-01-10T09:36:13;22.23;;;10.50;;
71162;SDS011;58858;50.948;6.566;2024-01-10T09:46:15;22.15;;;10.52;;
71162;SDS011;58858;50.948;6.566;2024-01-10T09:56:18;18.17;;;10.23;;
71162;SDS011;58858;50.948;6.566;2024-01-10T10:06:19;20.95;;;10.75;;
71162;SDS011;58858;50.948;6.566;2024-01-10T10:16:24;26.38;;;11.35;;
71162;SDS011;58858;50.948;6.566;2024-01-10T10:26:29;23.38;;;10.52;;
71162;SDS011;58858;50.948;6.566;2024-01-10T10:46:33;36.60;;;9.00;;
71162;SDS011;58858;50.948;6.566;2024-01-10T10:56:34;17.50;;;9.00;;
71162;SDS011;58858;50.948;6.566;2024-01-10T11:06:37;22.05;;;10.77;;
71162;SDS011;58858;50.948;6.566;2024-01-10T11:37:12;24.88;;;10.30;;
71162;SDS011;58858;50.948;6.566;2024-01-10T11:47:13;20.30;;;9.75;;
71162;SDS011;58858;50.948;6.566;2024-01-10T11:57:19;16.35;;;9.00;;
71162;SDS011;58858;50.948;6.566;2024-01-10T12:07:22;21.60;;;9.52;;
71162;SDS011;58858;50.948;6.566;2024-01-10T12:17:26;20.77;;;8.88;;
71162;SDS011;58858;50.948;6.566;2024-01-10T12:27:28;20.20;;;10.32;;
71162;SDS011;58858;50.948;6.566;2024-01-10T12:37:29;24.15;;;10.20;;
71162;SDS011;58858;50.948;6.566;2024-01-10T12:47:31;18.10;;;10.00;;
71162;SDS011;58858;50.948;6.566;2024-01-10T12:57:35;21.97;;;10.73;;
71162;SDS011;58858;50.948;6.566;2024-01-10T13:07:36;20.33;;;9.98;;
71162;SDS011;58858;50.948;6.566;2024-01-10T13:17:37;18.77;;;9.48;;
71162;SDS011;58858;50.948;6.566;2024-01-10T13:27:38;21.95;;;10.90;;
71162;SDS011;58858;50.948;6.566;2024-01-10T13:37:40;17.35;;;10.02;;
71162;SDS011;58858;50.948;6.566;2024-01-10T13:47:41;23.27;;;9.80;;
71162;SDS011;58858;50.948;6.566;2024-01-10T13:57:42;25.90;;;11.05;;
71162;SDS011;58858;50.948;6.566;2024-01-10T14:07:43;23.10;;;10.52;;
71162;SDS011;58858;50.948;6.566;2024-01-10T14:17:45;20.38;;;10.23;;
71162;SDS011;58858;50.948;6.566;2024-01-10T14:27:46;20.23;;;10.45;;
71162;SDS011;58858;50.948;6.566;2024-01-10T14:37:47;17.10;;;9.63;;
71162;SDS011;58858;50.948;6.566;2024-01-10T14:47:48;15.40;;;8.73;;
71162;SDS011;58858;50.948;6.566;2024-01-10T14:57:50;20.30;;;9.82;;
71162;SDS011;58858;50.948;6.566;2024-01-10T15:07:51;19.42;;;9.65;;
71162;SDS011;58858;50.948;6.566;2024-01-10T15:17:53;19.73;;;10.55;;
71162;SDS011;58858;50.948;6.566;2024-01-10T15:27:54;22.50;;;9.73;;
71162;SDS011;58858;50.948;6.566;2024-01-10T15:37:55;20.70;;;9.57;;
71162;SDS011;58858;50.948;6.566;2024-01-10T15:47:56;27.38;;;11.20;;
71162;SDS011;58858;50.948;6.566;2024-01-10T15:57:57;20.30;;;10.52;;
71162;SDS011;58858;50.948;6.566;2024-01-10T16:07:58;21.63;;;11.30;;
71162;SDS011;58858;50.948;6.566;2024-01-10T16:17:59;20.77;;;10.75;;
71162;SDS011;58858;50.948;6.566;2024-01-10T16:28:00;23.00;;;10.88;;
71162;SDS011;58858;50.948;6.566;2024-01-10T16:38:02;22.50;;;11.32;;
71162;SDS011;58858;50.948;6.566;2024-01-10T16:48:03;18.42;;;9.13;;
71162;SDS011;58858;50.948;6.566;2024-01-10T16:58:04;20.55;;;9.93;;
71162;SDS011;58858;50.948;6.566;2024-01-10T17:08:05;24.70;;;10.35;;
71162;SDS011;58858;50.948;6.566;2024-01-10T17:18:07;29.70;;;12.57;;
71162;SDS011;58858;50.948;6.566;2024-01-10T17:28:08;29.83;;;10.50;;
71162;SDS011;58858;50.948;6.566;2024-01-10T17:38:09;26.05;;;11.02;;
71162;SDS011;58858;50.948;6.566;2024-01-10T17:48:10;24.38;;;11.43;;
71162;SDS011;58858;50.948;6.566;2024-01-10T17:58:11;19.50;;;9.48;;
71162;SDS011;58858;50.948;6.566;2024-01-10T18:08:13;25.52;;;13.02;;
71162;SDS011;58858;50.948;6.566;2024-01-10T18:18:14;28.25;;;13.88;;
71162;SDS011;58858;50.948;6.566;2024-01-10T18:28:15;29.75;;;13.95;;
71162;SDS011;58858;50.948;6.566;2024-01-10T18:38:16;31.42;;;12.20;;
71162;SDS011;58858;50.948;6.566;2024-01-10T18:48:18;28.48;;;15.32;;
71162;SDS011;58858;50.948;6.566;2024-01-10T18:58:20;23.67;;;11.80;;
71162;SDS011;58858;50.948;6.566;2024-01-10T19:08:21;26.10;;;12.70;;
71162;SDS011;58858;50.948;6.566;2024-01-10T19:18:24;27.27;;;13.23;;
71162;SDS011;58858;50.948;6.566;2024-01-10T19:28:25;34.38;;;14.68;;
71162;SDS011;58858;50.948;6.566;2024-01-10T19:38:26;29.02;;;15.05;;
71162;SDS011;58858;50.948;6.566;2024-01-10T19:48:28;31.60;;;16.02;;
71162;SDS011;58858;50.948;6.566;2024-01-10T19:58:29;35.38;;;17.25;;
71162;SDS011;58858;50.948;6.566;2024-01-10T20:08:30;27.85;;;14.65;;
71162;SDS011;58858;50.948;6.566;2024-01-10T20:18:32;28.33;;;14.68;;
71162;SDS011;58858;50.948;6.566;2024-01-10T20:28:33;26.48;;;13.40;;
71162;SDS011;58858;50.948;6.566;2024-01-10T20:38:35;29.98;;;15.00;;
71162;SDS011;58858;50.948;6.566;2024-01-10T20:48:36;30.23;;;14.40;;
71162;SDS011;58858;50.948;6.566;2024-01-10T20:58:37;37.53;;;15.82;;
71162;SDS011;58858;50.948;6.566;2024-01-10T21:08:38;31.70;;;15.35;;
71162;SDS011;58858;50.948;6.566;2024-01-10T21:18:39;33.97;;;15.77;;
71162;SDS011;58858;50.948;6.566;2024-01-10T21:29:00;36.33;;;17.27;;
71162;SDS011;58858;50.948;6.566;2024-01-10T21:39:02;30.73;;;16.63;;
71162;SDS011;58858;50.948;6.566;2024-01-10T21:49:04;33.83;;;18.25;;
71162;SDS011;58858;50.948;6.566;2024-01-10T21:59:06;34.17;;;18.73;;
71162;SDS011;58858;50.948;6.566;2024-01-10T22:09:07;35.58;;;19.92;;
71162;SDS011;58858;50.948;6.566;2024-01-10T22:19:09;41.15;;;21.60;;
71162;SDS011;58858;50.948;6.566;2024-01-10T22:29:10;40.63;;;19.50;;
71162;SDS011;58858;50.948;6.566;2024-01-10T22:39:11;36.28;;;19.67;;
71162;SDS011;58858;50.948;6.566;2024-01-10T22:49:12;41.40;;;19.75;;
71162;SDS011;58858;50.948;6.566;2024-01-10T22:59:14;36.63;;;17.88;;
71162;SDS011;58858;50.948;6.566;2024-01-10T23:09:15;51.33;;;18.77;;
71162;SDS011;58858;50.948;6.566;2024-01-10T23:19:16;44.53;;;17.27;;
71162;SDS011;58858;50.948;6.566;2024-01-10T23:29:17;37.97;;;17.08;;
71162;SDS011;58858;50.948;6.566;2024-01-10T23:39:18;31.98;;;15.07;;
71162;SDS011;58858;50.948;6.566;2024-01-10T23:49:19;46.83;;;17.83;;
71162;SDS011;58858;50.948;6.566;2024-01-10T23:59:20;38.95;;;16.23;;
